createdAt,value
2018-09-17T00:00:42.360Z,0.00
2018-09-17T00:01:42.324Z,0.00
2018-09-17T00:02:42.356Z,0.00
2018-09-17T00:03:42.216Z,0.00
2018-09-17T00:04:42.198Z,0.00
2018-09-17T00:05:42.179Z,0.00
2018-09-17T00:06:42.186Z,0.00
2018-09-17T00:07:42.335Z,0.00
2018-09-17T00:08:42.266Z,0.00
2018-09-17T00:09:42.260Z,0.00
2018-09-17T00:10:42.199Z,0.00
2018-09-17T00:11:42.226Z,0.00
2018-09-17T00:12:42.169Z,0.00
2018-09-17T00:13:42.146Z,0.00
2018-09-17T00:14:42.207Z,0.00
2018-09-17T00:15:42.198Z,0.00
2018-09-17T00:16:42.128Z,0.00
2018-09-17T00:18:42.513Z,0.00
2018-09-17T00:19:42.106Z,0.00
2018-09-17T00:20:42.450Z,0.00
2018-09-17T00:21:41.927Z,0.00
2018-09-17T00:22:42.055Z,0.00
2018-09-17T00:23:41.898Z,0.00
2018-09-17T00:24:41.918Z,0.00
2018-09-17T00:25:41.957Z,0.00
2018-09-17T00:26:41.969Z,0.00
2018-09-17T00:27:41.978Z,0.00
2018-09-17T00:28:41.930Z,0.00
2018-09-17T00:29:41.998Z,0.00
2018-09-17T00:30:41.883Z,0.00
2018-09-17T00:31:41.861Z,0.00
2018-09-17T00:32:41.893Z,0.00
2018-09-17T00:33:41.698Z,0.00
2018-09-17T00:34:41.690Z,0.00
2018-09-17T00:35:41.665Z,0.00
2018-09-17T00:36:41.650Z,0.00
2018-09-17T00:37:41.630Z,0.00
2018-09-17T00:38:41.713Z,0.00
2018-09-17T00:39:41.598Z,0.00
2018-09-17T00:40:41.654Z,0.00
2018-09-17T00:42:41.894Z,0.00
2018-09-17T00:43:41.529Z,0.00
2018-09-17T00:44:41.631Z,0.00
2018-09-17T00:45:41.545Z,0.00
2018-09-17T00:46:41.477Z,0.00
2018-09-17T00:47:41.534Z,0.00
2018-09-17T00:48:41.514Z,0.00
2018-09-17T00:50:41.464Z,0.00
2018-09-17T00:51:41.485Z,0.00
2018-09-17T00:52:41.383Z,0.00
2018-09-17T00:53:41.353Z,0.00
2018-09-17T00:55:41.671Z,0.00
2018-09-17T00:57:41.390Z,0.00
2018-09-17T00:58:41.287Z,0.00
2018-09-17T00:59:41.253Z,0.00
2018-09-17T01:00:41.286Z,0.00
2018-09-17T01:01:41.219Z,0.00
2018-09-17T01:02:41.275Z,0.00
2018-09-17T01:03:41.241Z,0.00
2018-09-17T01:04:41.216Z,0.00
2018-09-17T01:05:41.151Z,0.00
2018-09-17T01:06:41.188Z,0.00
2018-09-17T01:07:41.116Z,0.00
2018-09-17T01:08:41.102Z,0.00
2018-09-17T01:09:41.152Z,0.00
2018-09-17T01:10:41.123Z,0.00
2018-09-17T01:11:41.048Z,0.00
2018-09-17T01:12:41.032Z,0.00
2018-09-17T01:13:41.121Z,0.00
2018-09-17T01:14:41.212Z,0.00
2018-09-17T01:15:41.035Z,0.00
2018-09-17T01:16:40.957Z,0.00
2018-09-17T01:17:40.942Z,0.00
2018-09-17T01:18:40.926Z,0.00
2018-09-17T01:19:40.962Z,0.00
2018-09-17T01:20:40.952Z,0.00
2018-09-17T01:21:40.937Z,0.00
2018-09-17T01:22:40.855Z,0.00
2018-09-17T01:23:40.917Z,0.00
2018-09-17T01:24:40.993Z,0.00
2018-09-17T01:25:40.883Z,0.00
2018-09-17T01:26:40.784Z,0.00
2018-09-17T01:27:40.959Z,0.00
2018-09-17T01:28:40.775Z,0.00
2018-09-17T01:29:40.751Z,0.00
2018-09-17T01:30:40.786Z,0.00
2018-09-17T01:31:40.760Z,0.00
2018-09-17T01:32:40.680Z,0.00
2018-09-17T01:33:40.717Z,0.00
2018-09-17T01:34:40.649Z,0.00
2018-09-17T01:35:40.782Z,0.00
2018-09-17T01:36:40.607Z,0.00
2018-09-17T01:37:40.643Z,0.00
2018-09-17T01:38:40.741Z,0.00
2018-09-17T01:39:40.993Z,0.00
2018-09-17T01:42:40.505Z,0.00
2018-09-17T01:43:40.567Z,0.00
2018-09-17T01:44:40.468Z,0.00
2018-09-17T01:45:40.555Z,0.00
2018-09-17T01:46:40.438Z,0.00
2018-09-17T01:47:40.418Z,0.00
2018-09-17T01:48:40.450Z,0.00
2018-09-17T01:49:40.387Z,0.00
2018-09-17T01:50:40.366Z,0.00
2018-09-17T01:51:40.394Z,0.00
2018-09-17T01:52:40.399Z,0.00
2018-09-17T01:53:40.316Z,0.00
2018-09-17T01:54:40.343Z,0.00
2018-09-17T01:55:40.278Z,0.00
2018-09-17T01:56:40.256Z,0.00
2018-09-17T01:58:40.373Z,0.00
2018-09-17T01:59:40.204Z,0.00
2018-09-17T02:00:40.186Z,0.00
2018-09-17T02:01:40.168Z,0.00
2018-09-17T02:02:40.327Z,0.00
2018-09-17T02:03:40.210Z,0.00
2018-09-17T02:04:40.168Z,0.00
2018-09-17T02:05:40.174Z,0.00
2018-09-17T02:06:40.080Z,0.00
2018-09-17T02:07:40.125Z,0.00
2018-09-17T02:08:40.132Z,0.00
2018-09-17T02:09:40.127Z,0.00
2018-09-17T02:10:40.157Z,0.00
2018-09-17T02:11:40.140Z,0.00
2018-09-17T02:12:40.077Z,0.00
2018-09-17T02:13:40.110Z,0.00
2018-09-17T02:14:39.934Z,0.00
2018-09-17T02:15:40.023Z,0.00
2018-09-17T02:17:39.938Z,0.00
2018-09-17T02:18:40.231Z,0.00
2018-09-17T02:19:39.848Z,0.00
2018-09-17T02:20:39.832Z,0.00
2018-09-17T02:21:39.812Z,0.00
2018-09-17T02:22:39.794Z,0.00
2018-09-17T02:23:39.825Z,0.00
2018-09-17T02:24:39.755Z,0.00
2018-09-17T02:25:39.740Z,0.00
2018-09-17T02:26:39.749Z,0.00
2018-09-17T02:27:39.703Z,0.00
2018-09-17T02:28:39.687Z,0.00
2018-09-17T02:29:39.770Z,0.00
2018-09-17T02:30:39.649Z,0.00
2018-09-17T02:31:39.640Z,0.00
2018-09-17T02:32:39.662Z,0.00
2018-09-17T02:33:39.600Z,0.00
2018-09-17T02:34:39.589Z,0.00
2018-09-17T02:35:39.617Z,0.00
2018-09-17T02:36:39.546Z,0.00
2018-09-17T02:37:39.529Z,0.00
2018-09-17T02:38:39.505Z,0.00
2018-09-17T02:40:39.470Z,0.00
2018-09-17T02:41:39.505Z,0.00
2018-09-17T02:42:39.434Z,0.00
2018-09-17T02:43:39.417Z,0.00
2018-09-17T02:44:39.399Z,0.00
2018-09-17T02:45:39.383Z,0.00
2018-09-17T02:46:39.365Z,0.00
2018-09-17T02:47:39.449Z,0.00
2018-09-17T02:48:39.377Z,0.00
2018-09-17T02:49:39.317Z,0.00
2018-09-17T02:50:39.289Z,0.00
2018-09-17T02:51:39.377Z,0.00
2018-09-17T02:52:39.252Z,0.00
2018-09-17T02:53:39.367Z,0.00
2018-09-17T02:54:39.290Z,0.00
2018-09-17T02:55:39.200Z,0.00
2018-09-17T02:57:39.160Z,0.00
2018-09-17T02:58:39.211Z,0.00
2018-09-17T02:59:39.278Z,0.00
2018-09-17T03:00:39.224Z,0.00
2018-09-17T03:01:39.090Z,0.00
2018-09-17T03:03:39.155Z,0.00
2018-09-17T03:04:39.088Z,0.00
2018-09-17T03:05:39.069Z,0.00
2018-09-17T03:07:39.387Z,0.00
2018-09-17T03:08:38.967Z,0.00
2018-09-17T03:09:38.952Z,0.00
2018-09-17T03:10:38.931Z,0.00
2018-09-17T03:11:38.961Z,0.00
2018-09-17T03:12:38.947Z,0.00
2018-09-17T03:13:38.976Z,0.00
2018-09-17T03:14:38.859Z,0.00
2018-09-17T03:15:38.891Z,0.00
2018-09-17T03:16:39.005Z,0.00
2018-09-17T03:17:38.925Z,0.00
2018-09-17T03:18:39.105Z,0.00
2018-09-17T03:19:38.968Z,0.00
2018-09-17T03:20:38.915Z,0.00
2018-09-17T03:21:38.807Z,0.00
2018-09-17T03:22:38.788Z,0.00
2018-09-17T03:23:38.820Z,0.00
2018-09-17T03:24:38.741Z,0.00
2018-09-17T03:25:38.659Z,0.00
2018-09-17T03:26:38.640Z,0.00
2018-09-17T03:27:38.674Z,0.00
2018-09-17T03:28:38.614Z,0.00
2018-09-17T03:29:38.637Z,0.00
2018-09-17T03:30:38.575Z,0.00
2018-09-17T03:31:38.705Z,0.00
2018-09-17T03:32:38.534Z,0.00
2018-09-17T03:33:38.519Z,0.00
2018-09-17T03:34:38.509Z,0.00
2018-09-17T03:35:38.529Z,0.00
2018-09-17T03:36:38.468Z,0.00
2018-09-17T03:37:38.447Z,0.00
2018-09-17T03:38:38.438Z,0.00
2018-09-17T03:39:38.411Z,0.00
2018-09-17T03:40:38.391Z,0.00
2018-09-17T03:41:38.427Z,0.00
2018-09-17T03:42:38.359Z,0.00
2018-09-17T03:43:38.345Z,0.00
2018-09-17T03:44:38.319Z,0.00
2018-09-17T03:45:38.305Z,0.00
2018-09-17T03:46:38.319Z,0.00
2018-09-17T03:47:38.315Z,0.00
2018-09-17T03:48:38.247Z,0.00
2018-09-17T03:49:38.229Z,0.00
2018-09-17T03:50:38.264Z,0.00
2018-09-17T03:51:38.204Z,0.00
2018-09-17T03:52:38.178Z,0.00
2018-09-17T03:53:38.283Z,0.00
2018-09-17T03:54:38.182Z,0.00
2018-09-17T03:55:38.127Z,0.00
2018-09-17T03:56:38.106Z,0.00
2018-09-17T03:57:38.085Z,0.00
2018-09-17T03:58:38.074Z,0.00
2018-09-17T03:59:38.101Z,0.00
2018-09-17T04:00:38.032Z,0.00
2018-09-17T04:01:38.018Z,0.00
2018-09-17T04:02:37.996Z,0.00
2018-09-17T04:03:38.060Z,0.00
2018-09-17T04:04:38.038Z,0.00
2018-09-17T04:05:37.997Z,0.00
2018-09-17T04:06:37.924Z,0.00
2018-09-17T04:07:37.906Z,0.00
2018-09-17T04:08:37.887Z,0.00
2018-09-17T04:09:37.871Z,0.00
2018-09-17T04:10:37.853Z,0.00
2018-09-17T04:11:37.884Z,0.00
2018-09-17T04:12:37.816Z,0.00
2018-09-17T04:13:37.850Z,0.00
2018-09-17T04:14:37.785Z,0.00
2018-09-17T04:15:37.813Z,0.00
2018-09-17T04:16:37.749Z,0.00
2018-09-17T04:17:37.889Z,0.00
2018-09-17T04:18:37.738Z,0.00
2018-09-17T04:19:37.774Z,0.00
2018-09-17T04:20:37.744Z,0.00
2018-09-17T04:21:37.654Z,0.00
2018-09-17T04:22:37.652Z,0.00
2018-09-17T04:23:37.720Z,0.00
2018-09-17T04:24:37.599Z,0.00
2018-09-17T04:26:37.935Z,4.00
2018-09-17T04:27:37.548Z,4.00
2018-09-17T04:29:37.822Z,0.00
2018-09-17T04:30:37.490Z,4.00
2018-09-17T04:32:37.826Z,4.00
2018-09-17T04:33:37.449Z,4.00
2018-09-17T04:34:37.496Z,8.00
2018-09-17T04:35:37.454Z,4.00
2018-09-17T04:36:37.384Z,8.00
2018-09-17T04:37:37.391Z,8.00
2018-09-17T04:38:37.348Z,12.00
2018-09-17T04:39:37.351Z,12.00
2018-09-17T04:40:37.310Z,16.00
2018-09-17T04:41:37.354Z,16.00
2018-09-17T04:42:37.374Z,16.00
2018-09-17T04:43:37.263Z,24.00
2018-09-17T04:44:37.304Z,28.00
2018-09-17T04:45:37.284Z,28.00
2018-09-17T04:46:37.206Z,32.00
2018-09-17T04:47:37.291Z,36.00
2018-09-17T04:48:37.877Z,44.00
2018-09-17T04:49:37.150Z,48.00
2018-09-17T04:50:37.200Z,56.00
2018-09-17T04:51:37.337Z,60.00
2018-09-17T04:52:37.131Z,68.00
2018-09-17T04:53:37.128Z,72.00
2018-09-17T04:54:37.060Z,80.00
2018-09-17T04:55:37.043Z,88.00
2018-09-17T04:56:37.025Z,92.00
2018-09-17T04:58:37.040Z,116.00
2018-09-17T04:59:37.198Z,128.00
2018-09-17T05:01:37.617Z,156.00
2018-09-17T05:02:37.029Z,168.00
2018-09-17T05:03:36.899Z,176.00
2018-09-17T05:04:36.880Z,188.00
2018-09-17T05:05:37.012Z,204.00
2018-09-17T05:07:37.135Z,252.00
2018-09-17T05:08:36.808Z,276.00
2018-09-17T05:10:36.780Z,336.00
2018-09-17T05:11:36.808Z,360.00
2018-09-17T05:12:36.739Z,384.00
2018-09-17T05:13:37.171Z,412.00
2018-09-17T05:14:36.707Z,428.00
2018-09-17T05:15:36.692Z,448.00
2018-09-17T05:16:36.669Z,472.00
2018-09-17T05:17:36.771Z,488.00
2018-09-17T05:18:36.632Z,512.00
2018-09-17T05:19:36.914Z,528.00
2018-09-17T05:20:36.611Z,560.00
2018-09-17T05:21:36.640Z,592.00
2018-09-17T05:22:36.560Z,628.00
2018-09-17T05:23:36.590Z,664.00
2018-09-17T05:24:36.529Z,700.00
2018-09-17T05:25:36.864Z,740.00
2018-09-17T05:26:36.521Z,772.00
2018-09-17T05:27:36.548Z,804.00
2018-09-17T05:30:36.470Z,900.00
2018-09-17T05:31:36.759Z,932.00
2018-09-17T05:32:36.438Z,968.00
2018-09-17T05:33:36.365Z,1000.00
2018-09-17T05:34:38.191Z,1028.00
2018-09-17T05:35:36.389Z,1044.00
2018-09-17T05:36:36.389Z,1064.00
2018-09-17T05:37:36.648Z,1084.00
2018-09-17T05:38:36.324Z,1108.00
2018-09-17T05:40:36.424Z,1144.00
2018-09-17T05:41:36.228Z,1164.00
2018-09-17T05:42:36.269Z,1188.00
2018-09-17T05:43:36.538Z,1204.00
2018-09-17T05:44:36.220Z,1212.00
2018-09-17T05:45:36.149Z,1216.00
2018-09-17T05:47:36.168Z,1220.00
2018-09-17T05:48:36.548Z,1228.00
2018-09-17T05:50:36.413Z,1232.00
2018-09-17T05:51:36.129Z,1236.00
2018-09-17T05:52:36.239Z,1244.00
2018-09-17T05:53:36.113Z,1256.00
2018-09-17T05:55:35.977Z,1276.00
2018-09-17T05:58:36.035Z,1348.00
2018-09-17T05:59:35.936Z,1368.00
2018-09-17T06:00:42.309Z,1376.00
2018-09-17T06:01:35.878Z,1364.00
2018-09-17T06:02:36.208Z,1356.00
2018-09-17T06:03:35.907Z,1352.00
2018-09-17T06:04:36.007Z,1356.00
2018-09-17T06:05:35.867Z,1376.00
2018-09-17T06:07:36.168Z,1444.00
2018-09-17T06:08:36.100Z,1488.00
2018-09-17T06:10:35.764Z,1580.00
2018-09-17T06:11:35.785Z,1616.00
2018-09-17T06:12:35.714Z,1636.00
2018-09-17T06:13:35.780Z,1644.00
2018-09-17T06:14:36.072Z,1648.00
2018-09-17T06:15:35.728Z,1656.00
2018-09-17T06:16:35.677Z,1672.00
2018-09-17T06:17:35.647Z,1700.00
2018-09-17T06:18:35.589Z,1716.00
2018-09-17T06:19:36.211Z,1728.00
2018-09-17T06:20:35.898Z,1732.00
2018-09-17T06:22:35.568Z,1748.00
2018-09-17T06:23:35.495Z,1764.00
2018-09-17T06:24:35.581Z,1788.00
2018-09-17T06:25:35.927Z,1824.00
2018-09-17T06:26:35.827Z,1876.00
2018-09-17T06:27:35.495Z,1936.00
2018-09-17T06:28:35.626Z,2008.00
2018-09-17T06:29:35.427Z,2080.00
2018-09-17T06:32:35.812Z,2312.00
2018-09-17T06:33:35.407Z,2388.00
2018-09-17T06:34:35.339Z,2444.00
2018-09-17T06:35:35.451Z,2484.00
2018-09-17T06:36:35.350Z,2500.00
2018-09-17T06:37:35.332Z,2492.00
2018-09-17T06:38:35.623Z,2504.00
2018-09-17T06:39:35.336Z,2552.00
2018-09-17T06:40:35.275Z,2596.00
2018-09-17T06:41:35.206Z,2644.00
2018-09-17T06:42:35.232Z,2692.00
2018-09-17T06:43:35.468Z,2740.00
2018-09-17T06:44:35.204Z,2796.00
2018-09-17T06:45:35.294Z,2816.00
2018-09-17T06:46:35.175Z,2812.00
2018-09-17T06:48:35.242Z,2808.00
2018-09-17T06:49:35.124Z,2836.00
2018-09-17T06:50:35.492Z,2856.00
2018-09-17T06:51:35.143Z,2816.00
2018-09-17T06:53:35.188Z,2636.00
2018-09-17T06:54:36.812Z,2524.00
2018-09-17T06:55:35.040Z,2444.00
2018-09-17T06:56:35.316Z,2380.00
2018-09-17T06:57:35.010Z,2356.00
2018-09-17T06:58:34.986Z,2344.00
2018-09-17T06:59:36.216Z,2388.00
2018-09-17T07:00:34.952Z,2448.00
2018-09-17T07:01:34.967Z,2520.00
2018-09-17T07:02:35.273Z,2572.00
2018-09-17T07:03:34.854Z,2600.00
2018-09-17T07:04:34.848Z,2620.00
2018-09-17T07:05:34.858Z,2660.00
2018-09-17T07:06:34.905Z,2716.00
2018-09-17T07:07:34.847Z,2772.00
2018-09-17T07:09:35.248Z,2828.00
2018-09-17T07:10:34.798Z,2860.00
2018-09-17T07:11:34.791Z,2912.00
2018-09-17T07:12:34.773Z,2984.00
2018-09-17T07:13:34.699Z,3008.00
2018-09-17T07:14:34.692Z,2936.00
2018-09-17T07:16:35.314Z,2704.00
2018-09-17T07:18:34.630Z,2816.00
2018-09-17T07:19:34.688Z,2944.00
2018-09-17T07:20:34.722Z,3052.00
2018-09-17T07:21:34.648Z,3096.00
2018-09-17T07:22:35.080Z,3076.00
2018-09-17T07:23:34.575Z,3088.00
2018-09-17T07:24:34.604Z,3140.00
2018-09-17T07:25:34.609Z,3228.00
2018-09-17T07:26:34.703Z,3252.00
2018-09-17T07:27:34.582Z,3184.00
2018-09-17T07:28:34.897Z,3020.00
2018-09-17T07:29:34.498Z,2808.00
2018-09-17T07:30:34.502Z,2592.00
2018-09-17T07:31:34.452Z,2364.00
2018-09-17T07:32:34.537Z,2276.00
2018-09-17T07:33:34.657Z,2308.00
2018-09-17T07:34:34.749Z,2272.00
2018-09-17T07:35:34.384Z,2180.00
2018-09-17T07:36:34.435Z,2088.00
2018-09-17T07:38:34.690Z,2036.00
2018-09-17T07:39:34.339Z,2112.00
2018-09-17T07:40:34.704Z,2216.00
2018-09-17T07:41:34.359Z,2280.00
2018-09-17T07:42:34.337Z,2312.00
2018-09-17T07:43:34.483Z,2396.00
2018-09-17T07:44:34.345Z,2568.00
2018-09-17T07:45:34.594Z,2988.00
2018-09-17T07:46:34.725Z,3284.00
2018-09-17T07:47:34.280Z,3568.00
2018-09-17T07:48:34.249Z,3948.00
2018-09-17T07:49:34.263Z,4324.00
2018-09-17T07:50:34.245Z,4548.00
2018-09-17T07:51:34.277Z,4760.00
2018-09-17T07:52:34.550Z,4824.00
2018-09-17T07:53:34.126Z,4912.00
2018-09-17T07:55:34.164Z,4836.00
2018-09-17T07:56:34.243Z,4724.00
2018-09-17T07:57:34.075Z,4668.00
2018-09-17T07:58:34.857Z,4600.00
2018-09-17T07:59:34.100Z,4532.00
2018-09-17T08:01:34.086Z,4208.00
2018-09-17T08:02:34.111Z,3928.00
2018-09-17T08:03:34.365Z,3616.00
2018-09-17T08:05:34.443Z,2988.00
2018-09-17T08:06:34.011Z,2848.00
2018-09-17T08:07:34.105Z,2804.00
2018-09-17T08:08:34.006Z,2688.00
2018-09-17T08:09:33.971Z,2744.00
2018-09-17T08:10:33.968Z,2936.00
2018-09-17T08:11:34.308Z,3172.00
2018-09-17T08:12:34.036Z,3376.00
2018-09-17T08:13:33.963Z,3536.00
2018-09-17T08:14:33.913Z,3692.00
2018-09-17T08:15:34.047Z,3676.00
2018-09-17T08:16:33.969Z,3492.00
2018-09-17T08:17:34.557Z,3412.00
2018-09-17T08:18:33.894Z,3240.00
2018-09-17T08:19:34.097Z,3092.00
2018-09-17T08:20:33.909Z,3024.00
2018-09-17T08:21:33.950Z,2904.00
2018-09-17T08:22:33.908Z,2708.00
2018-09-17T08:24:33.846Z,1980.00
2018-09-17T08:25:33.894Z,2080.00
2018-09-17T08:27:34.113Z,2476.00
2018-09-17T08:28:33.685Z,2752.00
2018-09-17T08:30:33.712Z,2760.00
2018-09-17T08:31:33.715Z,2892.00
2018-09-17T08:32:33.717Z,2876.00
2018-09-17T08:34:33.740Z,3188.00
2018-09-17T08:35:34.537Z,3336.00
2018-09-17T08:38:33.569Z,3480.00
2018-09-17T08:39:33.614Z,3492.00
2018-09-17T08:40:33.629Z,3508.00
2018-09-17T08:42:33.951Z,3228.00
2018-09-17T08:43:34.582Z,3316.00
2018-09-17T08:44:33.498Z,2976.00
2018-09-17T08:45:33.508Z,3036.00
2018-09-17T08:46:33.723Z,2884.00
2018-09-17T08:47:33.475Z,2788.00
2018-09-17T08:48:35.069Z,3128.00
2018-09-17T08:49:33.629Z,3280.00
2018-09-17T08:50:33.496Z,3344.00
2018-09-17T08:51:33.491Z,3408.00
2018-09-17T08:52:33.480Z,3408.00
2018-09-17T08:53:33.466Z,3464.00
2018-09-17T08:54:33.804Z,3556.00
2018-09-17T08:55:33.564Z,3572.00
2018-09-17T08:56:33.434Z,3660.00
2018-09-17T08:57:33.423Z,3720.00
2018-09-17T08:58:33.426Z,3808.00
2018-09-17T08:59:33.366Z,3940.00
2018-09-17T09:00:33.700Z,4024.00
2018-09-17T09:01:33.421Z,4144.00
2018-09-17T09:02:33.365Z,4140.00
2018-09-17T09:03:33.364Z,4316.00
2018-09-17T09:04:33.368Z,4296.00
2018-09-17T09:06:33.953Z,4116.00
2018-09-17T09:07:33.758Z,4536.00
2018-09-17T09:08:33.451Z,4956.00
2018-09-17T09:09:33.704Z,4804.00
2018-09-17T09:10:33.330Z,5156.00
2018-09-17T09:11:33.293Z,5164.00
2018-09-17T09:12:33.785Z,4876.00
2018-09-17T09:13:33.340Z,4916.00
2018-09-17T09:14:33.357Z,5400.00
2018-09-17T09:15:33.305Z,5620.00
2018-09-17T09:16:33.294Z,5900.00
2018-09-17T09:17:33.231Z,5832.00
2018-09-17T09:19:33.454Z,5528.00
2018-09-17T09:20:33.214Z,5836.00
2018-09-17T09:21:33.416Z,5924.00
2018-09-17T09:22:33.280Z,5984.00
2018-09-17T09:23:33.232Z,6192.00
2018-09-17T09:25:33.462Z,6196.00
2018-09-17T09:26:33.264Z,6168.00
2018-09-17T09:27:33.152Z,6324.00
2018-09-17T09:28:33.186Z,6332.00
2018-09-17T09:29:33.144Z,6480.00
2018-09-17T09:30:33.142Z,7552.00
2018-09-17T09:31:33.415Z,8016.00
2018-09-17T09:32:33.077Z,8436.00
2018-09-17T09:33:33.101Z,9496.00
2018-09-17T09:34:33.045Z,10328.00
2018-09-17T09:35:33.082Z,11416.00
2018-09-17T09:36:34.744Z,12496.00
2018-09-17T09:37:33.423Z,13440.00
2018-09-17T09:38:33.116Z,13792.00
2018-09-17T09:39:33.052Z,13472.00
2018-09-17T09:41:33.195Z,13920.00
2018-09-17T09:42:32.978Z,15040.00
2018-09-17T09:43:33.422Z,15328.00
2018-09-17T09:44:33.100Z,15424.00
2018-09-17T09:45:33.269Z,14848.00
2018-09-17T09:46:32.935Z,17088.00
2018-09-17T09:47:33.159Z,18720.00
2018-09-17T09:48:32.922Z,20224.00
2018-09-17T09:49:33.580Z,19200.00
2018-09-17T09:50:32.905Z,15968.00
2018-09-17T09:51:33.045Z,16608.00
2018-09-17T09:52:33.284Z,15008.00
2018-09-17T09:53:36.379Z,19424.00
2018-09-17T09:54:32.938Z,20480.00
2018-09-17T09:55:33.235Z,20512.00
2018-09-17T09:56:32.914Z,23424.00
2018-09-17T09:57:32.949Z,21792.00
2018-09-17T09:58:32.904Z,18784.00
2018-09-17T10:00:32.881Z,19968.00
2018-09-17T10:03:32.824Z,17120.00
2018-09-17T10:04:32.853Z,14336.00
2018-09-17T10:05:32.864Z,12368.00
2018-09-17T10:06:33.175Z,12284.00
2018-09-17T10:07:32.847Z,16640.00
2018-09-17T10:08:33.183Z,18752.00
2018-09-17T10:09:33.047Z,21216.00
2018-09-17T10:10:32.817Z,19264.00
2018-09-17T10:11:32.881Z,20096.00
2018-09-17T10:14:33.089Z,19904.00
2018-09-17T10:15:32.783Z,17856.00
2018-09-17T10:16:32.887Z,17760.00
2018-09-17T10:17:32.735Z,18112.00
2018-09-17T10:18:32.759Z,18976.00
2018-09-17T10:19:32.758Z,20096.00
2018-09-17T10:20:33.062Z,1536.00
2018-09-17T10:21:32.757Z,26368.00
2018-09-17T10:22:32.766Z,26240.00
2018-09-17T10:23:32.978Z,26432.00
2018-09-17T10:24:32.750Z,26272.00
2018-09-17T10:25:32.760Z,25984.00
2018-09-17T10:26:33.007Z,25504.00
2018-09-17T10:27:32.730Z,23744.00
2018-09-17T10:28:32.724Z,23008.00
2018-09-17T10:29:32.857Z,22240.00
2018-09-17T10:30:32.865Z,23392.00
2018-09-17T10:31:32.700Z,23456.00
2018-09-17T10:33:33.031Z,22080.00
2018-09-17T10:36:32.810Z,22368.00
2018-09-17T10:37:32.791Z,20704.00
2018-09-17T10:38:34.051Z,20608.00
2018-09-17T10:39:33.070Z,20544.00
2018-09-17T10:40:37.809Z,21568.00
2018-09-17T10:41:32.636Z,20768.00
2018-09-17T10:42:32.690Z,20960.00
2018-09-17T10:43:32.800Z,18784.00
2018-09-17T10:44:32.597Z,19520.00
2018-09-17T10:46:32.690Z,18784.00
2018-09-17T10:47:33.034Z,17280.00
2018-09-17T10:48:32.625Z,16832.00
2018-09-17T10:49:33.153Z,16704.00
2018-09-17T10:50:32.578Z,16000.00
2018-09-17T10:51:33.040Z,16736.00
2018-09-17T10:52:32.753Z,16448.00
2018-09-17T10:53:32.599Z,16832.00
2018-09-17T10:54:32.722Z,18080.00
2018-09-17T10:55:32.628Z,21024.00
2018-09-17T10:56:32.599Z,21344.00
2018-09-17T10:58:32.928Z,19200.00
2018-09-17T10:59:32.532Z,20864.00
2018-09-17T11:00:32.719Z,19776.00
2018-09-17T11:01:32.641Z,21760.00
2018-09-17T11:02:32.567Z,21600.00
2018-09-17T11:04:32.915Z,22848.00
2018-09-17T11:05:32.548Z,24576.00
2018-09-17T11:06:32.952Z,23840.00
2018-09-17T11:07:32.694Z,24640.00
2018-09-17T11:08:32.489Z,26592.00
2018-09-17T11:09:32.508Z,31072.00
2018-09-17T11:10:32.928Z,32512.00
2018-09-17T11:11:32.530Z,34976.00
2018-09-17T11:12:32.590Z,34016.00
2018-09-17T11:13:32.510Z,36000.00
2018-09-17T11:14:32.549Z,33024.00
2018-09-17T11:15:32.497Z,35232.00
2018-09-17T11:16:32.859Z,34432.00
2018-09-17T11:17:32.510Z,30624.00
2018-09-17T11:20:05.968Z,28448.00
2018-09-17T11:20:33.017Z,31232.00
2018-09-17T11:25:32.482Z,32608.00
2018-09-17T11:26:32.414Z,30144.00
2018-09-17T11:27:32.449Z,26432.00
2018-09-17T11:28:32.754Z,26464.00
2018-09-17T11:29:32.883Z,30464.00
2018-09-17T11:30:32.796Z,28960.00
2018-09-17T11:31:33.317Z,25728.00
2018-09-17T11:33:32.692Z,31264.00
2018-09-17T11:34:33.208Z,32096.00
2018-09-17T11:35:32.414Z,30816.00
2018-09-17T11:36:33.292Z,30368.00
2018-09-17T11:37:34.990Z,28928.00
2018-09-17T11:38:32.417Z,29248.00
2018-09-17T11:39:32.460Z,28736.00
2018-09-17T11:40:32.699Z,29824.00
2018-09-17T11:41:32.392Z,30496.00
2018-09-17T11:42:32.335Z,29824.00
2018-09-17T11:43:32.746Z,30144.00
2018-09-17T11:45:32.702Z,29120.00
2018-09-17T11:46:32.627Z,30304.00
2018-09-17T11:47:32.315Z,28448.00
2018-09-17T11:49:32.376Z,30560.00
2018-09-17T11:51:32.338Z,37792.00
2018-09-17T11:52:32.636Z,35840.00
2018-09-17T11:53:32.420Z,39776.00
2018-09-17T11:54:32.281Z,42624.00
2018-09-17T11:55:32.335Z,39264.00
2018-09-17T11:56:32.690Z,36032.00
2018-09-17T11:57:32.310Z,35488.00
2018-09-17T11:58:32.780Z,32192.00
2018-09-17T11:59:38.621Z,31360.00
2018-09-17T12:00:32.334Z,32160.00
2018-09-17T12:02:32.313Z,34080.00
2018-09-17T12:03:32.541Z,35968.00
2018-09-17T12:04:32.645Z,37152.00
2018-09-17T12:05:32.279Z,37664.00
2018-09-17T12:06:32.473Z,36608.00
2018-09-17T12:07:32.296Z,35712.00
2018-09-17T12:08:32.326Z,35456.00
2018-09-17T12:09:32.266Z,36928.00
2018-09-17T12:10:32.570Z,37088.00
2018-09-17T12:11:32.209Z,39424.00
2018-09-17T12:12:32.210Z,41472.00
2018-09-17T12:13:33.115Z,42528.00
2018-09-17T12:14:32.700Z,43360.00
2018-09-17T12:15:32.333Z,42592.00
2018-09-17T12:16:32.855Z,48320.00
2018-09-17T12:17:32.296Z,48736.00
2018-09-17T12:18:32.196Z,45344.00
2018-09-17T12:19:32.225Z,48448.00
2018-09-17T12:21:32.203Z,46592.00
2018-09-17T12:22:32.630Z,45024.00
2018-09-17T12:24:32.207Z,44256.00
2018-09-17T12:25:32.246Z,43744.00
2018-09-17T12:26:32.355Z,40992.00
2018-09-17T12:27:32.190Z,41184.00
2018-09-17T12:28:32.499Z,37856.00
2018-09-17T12:30:32.202Z,36288.00
2018-09-17T12:31:32.396Z,33888.00
2018-09-17T12:33:32.258Z,34624.00
2018-09-17T12:34:32.471Z,33600.00
2018-09-17T12:36:39.033Z,34272.00
2018-09-17T12:37:32.158Z,34720.00
2018-09-17T12:38:32.157Z,34944.00
2018-09-17T12:39:32.143Z,35456.00
2018-09-17T12:40:32.455Z,32864.00
2018-09-17T12:41:32.173Z,32064.00
2018-09-17T12:42:32.651Z,31008.00
2018-09-17T12:43:32.102Z,29632.00
2018-09-17T12:44:32.644Z,28000.00
2018-09-17T12:45:32.137Z,28928.00
2018-09-17T12:46:32.423Z,29504.00
2018-09-17T12:47:32.101Z,29184.00
2018-09-17T12:48:32.159Z,24608.00
2018-09-17T12:49:32.117Z,23424.00
2018-09-17T12:50:32.121Z,24640.00
2018-09-17T12:51:32.152Z,20736.00
2018-09-17T12:53:32.209Z,22976.00
2018-09-17T12:54:32.074Z,23808.00
2018-09-17T12:55:32.054Z,21984.00
2018-09-17T12:56:32.103Z,23232.00
2018-09-17T12:57:32.218Z,23232.00
2018-09-17T12:58:32.357Z,22560.00
2018-09-17T12:59:32.212Z,21792.00
2018-09-17T13:00:32.251Z,22272.00
2018-09-17T13:01:33.387Z,25056.00
2018-09-17T13:02:32.258Z,24224.00
2018-09-17T13:03:32.101Z,23392.00
2018-09-17T13:04:32.479Z,20256.00
2018-09-17T13:05:32.071Z,19200.00
2018-09-17T13:06:32.132Z,26528.00
2018-09-17T13:07:32.045Z,27808.00
2018-09-17T13:09:32.041Z,22272.00
2018-09-17T13:10:32.266Z,21440.00
2018-09-17T13:11:32.089Z,20640.00
2018-09-17T13:12:32.144Z,25664.00
2018-09-17T13:13:32.202Z,28096.00
2018-09-17T13:14:32.010Z,29088.00
2018-09-17T13:15:32.001Z,28960.00
2018-09-17T13:16:32.513Z,28384.00
2018-09-17T13:17:32.008Z,27328.00
2018-09-17T13:18:32.089Z,28704.00
2018-09-17T13:19:32.039Z,22624.00
2018-09-17T13:20:32.025Z,25568.00
2018-09-17T13:21:31.993Z,26624.00
2018-09-17T13:22:32.612Z,26368.00
2018-09-17T13:23:31.948Z,25600.00
2018-09-17T13:24:32.003Z,25152.00
2018-09-17T13:25:32.040Z,25216.00
2018-09-17T13:26:32.496Z,24832.00
2018-09-17T13:27:31.951Z,25952.00
2018-09-17T13:28:32.339Z,25088.00
2018-09-17T13:29:31.955Z,22752.00
2018-09-17T13:30:32.000Z,21504.00
2018-09-17T13:31:31.968Z,20320.00
2018-09-17T13:32:32.025Z,21088.00
2018-09-17T13:33:31.907Z,18560.00
2018-09-17T13:34:32.229Z,19520.00
2018-09-17T13:35:31.977Z,18688.00
2018-09-17T13:36:31.876Z,18752.00
2018-09-17T13:37:32.035Z,18976.00
2018-09-17T13:40:32.393Z,18944.00
2018-09-17T13:41:32.063Z,17472.00
2018-09-17T13:42:31.931Z,17152.00
2018-09-17T13:43:31.923Z,12960.00
2018-09-17T13:44:32.063Z,11160.00
2018-09-17T13:45:31.899Z,9600.00
2018-09-17T13:47:32.962Z,8340.00
2018-09-17T13:48:31.903Z,8512.00
2018-09-17T13:50:32.272Z,8336.00